Time;durP1;ratioP1;P1;durP2;ratioP2;P2;SDS_P1;SDS_P2;PMS_P1;PMS_P2;Temp;Humidity;BMP_temperature;BMP_pressure;BME280_temperature;BME280_humidity;BME280_pressure;Samples;Min_cycle;Max_cycle;Signal;HPM_P1;HPM_P2
2022/12/19 05:02:28;;;;;;;1999.90;999.90;;;;;;;;;;5120453;23;20641;-69
2022/12/19 05:05:14;;;;;;;1999.90;999.90;;;;;;;;;;4951691;29;20216;-69
2022/12/19 05:07:59;;;;;;;1999.90;999.90;;;;;;;;;;4952990;28;20212;-70
2022/12/19 05:10:44;;;;;;;1999.90;999.90;;;;;;;;;;4953814;28;20229;-70
2022/12/19 05:13:29;;;;;;;1999.90;999.90;;;;;;;;;;4953935;29;20357;-70
2022/12/19 05:16:14;;;;;;;1999.90;999.90;;;;;;;;;;4953719;29;20212;-71
2022/12/19 05:19:01;;;;;;;1999.90;999.90;;;;;;;;;;4951905;29;20213;-70
2022/12/19 05:21:45;;;;;;;1999.90;999.90;;;;;;;;;;4952751;28;20256;-70
2022/12/19 05:24:30;;;;;;;1999.90;999.90;;;;;;;;;;4951632;29;20638;-70
2022/12/19 05:27:15;;;;;;;1999.90;999.90;;;;;;;;;;4952061;29;20773;-71
2022/12/19 05:30:00;;;;;;;1999.90;999.90;;;;;;;;;;4952272;29;20440;-70
2022/12/19 05:32:45;;;;;;;1999.90;999.90;;;;;;;;;;4953832;29;20207;-70
2022/12/19 05:35:32;;;;;;;1999.90;999.90;;;;;;;;;;4935577;29;20584;-70
2022/12/19 05:38:18;;;;;;;1999.90;999.90;;;;;;;;;;4951754;29;20213;-70
2022/12/19 05:41:06;;;;;;;1999.90;999.90;;;;;;;;;;4949509;28;20232;-69
2022/12/19 05:43:52;;;;;;;1999.90;999.90;;;;;;;;;;4948515;29;20216;-69
2022/12/19 05:46:37;;;;;;;1999.90;999.90;;;;;;;;;;4951680;29;20228;-69
2022/12/19 05:49:22;;;;;;;1999.90;999.90;;;;;;;;;;4953421;29;20228;-69
2022/12/19 05:52:11;;;;;;;1999.90;999.90;;;;;;;;;;4950136;28;20449;-69
2022/12/19 05:54:55;;;;;;;1999.90;999.90;;;;;;;;;;4952360;29;20206;-69
2022/12/19 05:57:40;;;;;;;1999.90;999.90;;;;;;;;;;4949571;29;20565;-65
2022/12/19 06:00:25;;;;;;;1999.90;999.90;;;;;;;;;;4952048;28;20220;-66
2022/12/19 06:03:10;;;;;;;1999.90;999.90;;;;;;;;;;4952432;29;20257;-65
2022/12/19 06:05:55;;;;;;;1999.90;999.90;;;;;;;;;;4951746;29;20224;-64
2022/12/19 06:08:41;;;;;;;1999.90;999.90;;;;;;;;;;4957636;28;20575;-64
2022/12/19 06:11:27;;;;;;;1999.90;999.90;;;;;;;;;;4951068;29;20248;-65
2022/12/19 06:14:12;;;;;;;1999.90;999.90;;;;;;;;;;4953018;29;20727;-68
2022/12/19 06:16:57;;;;;;;1999.90;999.90;;;;;;;;;;4953423;29;20217;-68
2022/12/19 06:19:42;;;;;;;1999.90;999.90;;;;;;;;;;4954261;28;20248;-68
2022/12/19 06:22:27;;;;;;;1999.90;999.90;;;;;;;;;;4956885;29;20296;-68
2022/12/19 06:25:13;;;;;;;1999.90;999.90;;;;;;;;;;4957071;29;20695;-67
2022/12/19 06:27:58;;;;;;;1999.90;999.90;;;;;;;;;;4956468;29;20233;-68
2022/12/19 06:30:44;;;;;;;1999.90;999.90;;;;;;;;;;4956929;29;20244;-68
2022/12/19 06:33:30;;;;;;;1999.90;999.90;;;;;;;;;;4956471;29;20208;-67
2022/12/19 06:36:18;;;;;;;1999.90;999.90;;;;;;;;;;4956333;29;20598;-68
2022/12/19 06:39:03;;;;;;;1999.90;999.90;;;;;;;;;;4956627;29;20207;-68
2022/12/19 06:44:54;;;;;;;1999.90;999.90;;;;;;;;;;4956065;29;20803;-67
2022/12/19 06:47:39;;;;;;;1999.90;999.90;;;;;;;;;;4956382;29;20320;-67
2022/12/19 06:50:24;;;;;;;1999.90;999.90;;;;;;;;;;4956388;29;20607;-68
2022/12/19 06:53:09;;;;;;;1999.90;999.90;;;;;;;;;;4956292;29;20288;-67
2022/12/19 06:55:55;;;;;;;1999.90;999.90;;;;;;;;;;4956089;29;20624;-67
2022/12/19 06:58:42;;;;;;;1999.90;999.90;;;;;;;;;;4956333;29;20233;-68
2022/12/19 07:01:33;;;;;;;1999.90;999.90;;;;;;;;;;4955977;29;20241;-68
2022/12/19 07:04:20;;;;;;;1999.90;999.90;;;;;;;;;;4955937;29;20212;-68
2022/12/19 07:07:05;;;;;;;1999.90;999.90;;;;;;;;;;4955945;29;20224;-67
2022/12/19 07:09:50;;;;;;;1999.90;999.90;;;;;;;;;;4956044;29;20582;-68
2022/12/19 07:12:35;;;;;;;1999.90;999.90;;;;;;;;;;4955894;29;20231;-67
2022/12/19 07:15:23;;;;;;;1999.90;999.90;;;;;;;;;;4955944;29;20289;-67
2022/12/19 07:18:09;;;;;;;1999.90;999.90;;;;;;;;;;4955653;29;20711;-67
2022/12/19 07:20:54;;;;;;;1999.90;999.90;;;;;;;;;;4955888;29;20298;-68
2022/12/19 07:23:39;;;;;;;1999.90;999.90;;;;;;;;;;4955935;29;20284;-67
2022/12/19 07:26:24;;;;;;;1999.90;999.90;;;;;;;;;;4955447;29;20357;-68
2022/12/19 07:29:09;;;;;;;1999.90;999.90;;;;;;;;;;4955754;29;20208;-67
2022/12/19 07:31:55;;;;;;;1999.90;999.90;;;;;;;;;;4955547;28;20314;-68
2022/12/19 07:34:40;;;;;;;1999.90;999.90;;;;;;;;;;4955242;29;20213;-67
2022/12/19 07:37:25;;;;;;;1999.90;999.90;;;;;;;;;;4955480;29;20206;-68
2022/12/19 07:40:10;;;;;;;1999.90;999.90;;;;;;;;;;4955600;29;20580;-67
2022/12/19 07:42:58;;;;;;;1999.90;999.90;;;;;;;;;;4955592;29;20683;-68
2022/12/19 07:45:43;;;;;;;1999.90;999.90;;;;;;;;;;4954952;29;20210;-67
2022/12/19 07:48:31;;;;;;;1999.90;999.90;;;;;;;;;;4955481;29;20323;-68
2022/12/19 07:51:16;;;;;;;1999.90;999.90;;;;;;;;;;4955242;29;20355;-68
2022/12/19 07:54:01;;;;;;;1999.90;999.90;;;;;;;;;;4955307;29;20263;-68
2022/12/19 07:56:46;;;;;;;1999.90;999.90;;;;;;;;;;4955318;29;20261;-68
2022/12/19 07:59:31;;;;;;;1999.90;999.90;;;;;;;;;;4955289;29;20222;-67
2022/12/19 08:02:16;;;;;;;1999.90;999.90;;;;;;;;;;4954905;28;20250;-67
2022/12/19 08:05:04;;;;;;;1999.90;999.90;;;;;;;;;;4952291;29;20230;-68
2022/12/19 08:07:50;;;;;;;1999.90;999.90;;;;;;;;;;4950529;28;20291;-68
2022/12/19 08:10:34;;;;;;;1999.90;999.90;;;;;;;;;;4951563;28;20854;-68
2022/12/19 08:13:19;;;;;;;1999.90;999.90;;;;;;;;;;4953257;29;20834;-68
2022/12/19 08:16:05;;;;;;;1999.90;999.90;;;;;;;;;;4950527;29;20277;-67
2022/12/19 08:18:50;;;;;;;1999.90;999.90;;;;;;;;;;4953342;29;20205;-68
2022/12/19 08:21:36;;;;;;;1999.90;999.90;;;;;;;;;;4951673;28;20242;-67
2022/12/19 08:24:21;;;;;;;1999.90;999.90;;;;;;;;;;4951254;29;20261;-67
2022/12/19 08:27:06;;;;;;;1999.90;999.90;;;;;;;;;;4952933;29;20235;-68
2022/12/19 08:29:51;;;;;;;1999.90;999.90;;;;;;;;;;4953165;29;20705;-67
2022/12/19 08:32:35;;;;;;;1999.90;999.90;;;;;;;;;;4952576;28;20233;-68
2022/12/19 08:35:21;;;;;;;1999.90;999.90;;;;;;;;;;4952085;29;20978;-68
2022/12/19 08:38:07;;;;;;;1999.90;999.90;;;;;;;;;;4952938;29;20274;-67
2022/12/19 08:40:53;;;;;;;1999.90;999.90;;;;;;;;;;4953194;28;20372;-68
2022/12/19 08:43:39;;;;;;;1999.90;999.90;;;;;;;;;;4950162;29;20687;-66
2022/12/19 08:46:24;;;;;;;1999.90;999.90;;;;;;;;;;4938254;29;20216;-66
2022/12/19 08:49:09;;;;;;;1999.90;999.90;;;;;;;;;;4952550;29;20262;-65
2022/12/19 08:51:54;;;;;;;1999.90;999.90;;;;;;;;;;4944993;29;20370;-67
2022/12/19 08:54:40;;;;;;;1999.90;999.90;;;;;;;;;;4940449;29;20290;-67
2022/12/19 08:57:25;;;;;;;1999.90;999.90;;;;;;;;;;4947086;29;20215;-68
2022/12/19 09:00:11;;;;;;;1999.90;999.90;;;;;;;;;;4951910;29;20725;-67
2022/12/19 09:02:56;;;;;;;1999.90;999.90;;;;;;;;;;4954021;29;20217;-67
2022/12/19 09:05:40;;;;;;;1999.90;999.90;;;;;;;;;;4954254;28;20712;-67
2022/12/19 09:08:27;;;;;;;1999.90;999.90;;;;;;;;;;4953136;28;20623;-67
2022/12/19 09:11:15;;;;;;;1999.90;999.90;;;;;;;;;;4954288;28;20239;-68
2022/12/19 09:13:59;;;;;;;1999.90;999.90;;;;;;;;;;4962998;28;20299;-67
2022/12/19 09:16:44;;;;;;;1999.90;999.90;;;;;;;;;;4959635;28;20700;-67
2022/12/19 09:19:31;;;;;;;1999.90;999.90;;;;;;;;;;4954814;28;20286;-67
2022/12/19 09:22:16;;;;;;;1999.90;999.90;;;;;;;;;;4951218;28;20305;-68
2022/12/19 09:25:01;;;;;;;1999.90;999.90;;;;;;;;;;4956663;28;20214;-67
2022/12/19 09:27:48;;;;;;;1999.90;999.90;;;;;;;;;;4958654;28;20235;-66
2022/12/19 09:30:33;;;;;;;1999.90;999.90;;;;;;;;;;4953504;28;20217;-67
2022/12/19 09:33:17;;;;;;;1999.90;999.90;;;;;;;;;;4953488;28;20415;-67
2022/12/19 09:36:03;;;;;;;1999.90;999.90;;;;;;;;;;4957140;28;20306;-67
2022/12/19 09:38:49;;;;;;;1999.90;999.90;;;;;;;;;;4952691;28;20210;-66
2022/12/19 09:41:46;;;;;;;1999.90;999.90;;;;;;;;;;4953650;28;20229;-68
2022/12/19 09:44:39;;;;;;;1999.90;999.90;;;;;;;;;;4952572;28;20611;-67
2022/12/19 09:47:24;;;;;;;1999.90;999.90;;;;;;;;;;4962328;28;20235;-67
2022/12/19 09:50:17;;;;;;;1999.90;999.90;;;;;;;;;;4958341;28;20291;-67
2022/12/19 09:53:05;;;;;;;1999.90;999.90;;;;;;;;;;4960810;28;20216;-68
2022/12/19 09:55:52;;;;;;;1999.90;999.90;;;;;;;;;;4952947;28;20444;-68
2022/12/19 09:58:37;;;;;;;1999.90;999.90;;;;;;;;;;4958881;28;20250;-67
2022/12/19 10:01:28;;;;;;;1999.90;999.90;;;;;;;;;;4964149;28;20718;-68
2022/12/19 10:04:17;;;;;;;1999.90;999.90;;;;;;;;;;4965961;28;20207;-68
2022/12/19 10:07:01;;;;;;;1999.90;999.90;;;;;;;;;;4961111;28;20220;-67
2022/12/19 10:09:47;;;;;;;1999.90;999.90;;;;;;;;;;4955039;28;20253;-68
2022/12/19 10:12:39;;;;;;;1999.90;999.90;;;;;;;;;;4965157;28;20234;-67
2022/12/19 10:15:26;;;;;;;1999.90;999.90;;;;;;;;;;4970620;28;20219;-67
2022/12/19 10:18:20;;;;;;;1999.90;999.90;;;;;;;;;;4973566;28;21019;-68
2022/12/19 10:21:07;;;;;;;1999.90;999.90;;;;;;;;;;4970549;28;20286;-67
2022/12/19 10:23:59;;;;;;;1999.90;999.90;;;;;;;;;;4968508;28;20247;-68
2022/12/19 10:26:49;;;;;;;1999.90;999.90;;;;;;;;;;4967128;28;20224;-67
2022/12/19 10:29:49;;;;;;;1999.90;999.90;;;;;;;;;;4959462;28;20314;-68
2022/12/19 10:32:39;;;;;;;1999.90;999.90;;;;;;;;;;4954761;28;20795;-68
2022/12/19 10:35:29;;;;;;;1999.90;999.90;;;;;;;;;;4953207;28;20208;-67
2022/12/19 10:38:19;;;;;;;1999.90;999.90;;;;;;;;;;4958478;28;20212;-67
2022/12/19 10:41:11;;;;;;;1999.90;999.90;;;;;;;;;;4972446;28;20322;-67
2022/12/19 10:44:01;;;;;;;1999.90;999.90;;;;;;;;;;4959773;28;20885;-67
2022/12/19 10:46:47;;;;;;;1999.90;999.90;;;;;;;;;;4955745;28;20340;-68
2022/12/19 10:49:34;;;;;;;1999.90;999.90;;;;;;;;;;4962788;28;20575;-67
2022/12/19 10:52:45;;;;;;;1999.90;999.90;;;;;;;;;;4967049;28;20695;-68
2022/12/19 10:55:37;;;;;;;1999.90;999.90;;;;;;;;;;4959833;28;20299;-68
2022/12/19 10:58:23;;;;;;;1999.90;999.90;;;;;;;;;;4959549;28;20264;-66
2022/12/19 11:01:11;;;;;;;1999.90;999.90;;;;;;;;;;4955093;28;20319;-68
2022/12/19 11:04:13;;;;;;;1999.90;999.90;;;;;;;;;;4961686;28;20212;-67
2022/12/19 11:07:05;;;;;;;1999.90;999.90;;;;;;;;;;4966860;28;20288;-68
2022/12/19 11:09:51;;;;;;;1999.90;999.90;;;;;;;;;;4956234;28;20220;-68
2022/12/19 11:12:36;;;;;;;1999.90;999.90;;;;;;;;;;4953109;28;20793;-67
2022/12/19 11:15:22;;;;;;;1999.90;999.90;;;;;;;;;;4954644;28;20222;-67
2022/12/19 11:18:08;;;;;;;1999.90;999.90;;;;;;;;;;4957686;28;20215;-67
2022/12/19 11:20:55;;;;;;;1999.90;999.90;;;;;;;;;;4956353;28;20288;-67
2022/12/19 11:23:46;;;;;;;1999.90;999.90;;;;;;;;;;4954975;28;20214;-68
2022/12/19 11:26:42;;;;;;;1999.90;999.90;;;;;;;;;;4961547;28;20215;-67
2022/12/19 11:29:27;;;;;;;1999.90;999.90;;;;;;;;;;4952603;28;20243;-68
2022/12/19 11:32:23;;;;;;;1999.90;999.90;;;;;;;;;;4957841;28;20707;-68
2022/12/19 11:35:14;;;;;;;1999.90;999.90;;;;;;;;;;4950919;28;20711;-67
2022/12/19 11:38:03;;;;;;;1999.90;999.90;;;;;;;;;;4955372;28;20217;-68
2022/12/19 11:40:50;;;;;;;1999.90;999.90;;;;;;;;;;4952519;28;20239;-68
2022/12/19 11:43:39;;;;;;;1999.90;999.90;;;;;;;;;;4956096;28;20832;-68
2022/12/19 11:46:36;;;;;;;1999.90;999.90;;;;;;;;;;4953289;28;20348;-67
2022/12/19 11:49:25;;;;;;;1999.90;999.90;;;;;;;;;;4952483;28;20244;-67
2022/12/19 11:52:14;;;;;;;1999.90;999.90;;;;;;;;;;4953869;28;20345;-67
2022/12/19 11:55:02;;;;;;;1999.90;999.90;;;;;;;;;;4953519;28;20572;-67
2022/12/19 11:57:47;;;;;;;1999.90;999.90;;;;;;;;;;4951513;28;20204;-67
2022/12/19 12:00:34;;;;;;;1999.90;999.90;;;;;;;;;;4952554;28;20220;-68
2022/12/19 12:03:31;;;;;;;1999.90;999.90;;;;;;;;;;4954899;28;20251;-67
2022/12/19 12:06:17;;;;;;;1999.90;999.90;;;;;;;;;;4950191;28;20416;-68
2022/12/19 12:09:07;;;;;;;1999.90;999.90;;;;;;;;;;4962113;28;20227;-68
2022/12/19 12:11:54;;;;;;;1999.90;999.90;;;;;;;;;;4949407;28;20639;-68
2022/12/19 12:14:44;;;;;;;1999.90;999.90;;;;;;;;;;4961321;28;20226;-68
2022/12/19 12:17:47;;;;;;;1999.90;999.90;;;;;;;;;;4957529;28;20307;-68
2022/12/19 12:20:36;;;;;;;1999.90;999.90;;;;;;;;;;4951301;28;20200;-68
2022/12/19 12:23:24;;;;;;;1999.90;999.90;;;;;;;;;;4951701;28;20607;-66
2022/12/19 12:26:13;;;;;;;1999.90;999.90;;;;;;;;;;4966885;28;20212;-68
2022/12/19 12:29:03;;;;;;;1999.90;999.90;;;;;;;;;;4954527;28;20954;-69
2022/12/19 12:32:03;;;;;;;1999.90;999.90;;;;;;;;;;4953450;28;20787;-66
2022/12/19 12:34:57;;;;;;;1999.90;999.90;;;;;;;;;;4956505;28;20221;-67
2022/12/19 12:37:47;;;;;;;1999.90;999.90;;;;;;;;;;4956219;28;20291;-68
2022/12/19 12:40:38;;;;;;;1999.90;999.90;;;;;;;;;;4963623;28;20594;-67
2022/12/19 12:43:30;;;;;;;1999.90;999.90;;;;;;;;;;4954221;28;20707;-68
2022/12/19 12:46:17;;;;;;;1999.90;999.90;;;;;;;;;;4952918;28;20209;-68
2022/12/19 12:49:03;;;;;;;1999.90;999.90;;;;;;;;;;4961405;28;20644;-68
2022/12/19 12:51:50;;;;;;;1999.90;999.90;;;;;;;;;;4957195;28;20240;-68
2022/12/19 12:54:37;;;;;;;1999.90;999.90;;;;;;;;;;4950945;28;20231;-67
2022/12/19 12:57:33;;;;;;;1999.90;999.90;;;;;;;;;;4953734;28;20205;-68
2022/12/19 13:00:24;;;;;;;1999.90;999.90;;;;;;;;;;4961396;28;20224;-67
2022/12/19 13:03:11;;;;;;;1999.90;999.90;;;;;;;;;;4953279;28;20329;-67
2022/12/19 13:06:03;;;;;;;1999.90;999.90;;;;;;;;;;4965834;28;20751;-67
2022/12/19 13:08:51;;;;;;;1999.90;999.90;;;;;;;;;;4966393;28;20255;-67
2022/12/19 13:14:45;;;;;;;1999.90;999.90;;;;;;;;;;4955517;28;20203;-68
2022/12/19 13:17:45;;;;;;;1999.90;999.90;;;;;;;;;;4961754;28;20300;-67
2022/12/19 13:20:48;;;;;;;1999.90;999.90;;;;;;;;;;4952996;28;20215;-68
2022/12/19 13:23:41;;;;;;;1999.90;999.90;;;;;;;;;;4957550;28;20607;-68
2022/12/19 13:26:48;;;;;;;1999.90;999.90;;;;;;;;;;4954796;28;20216;-68
2022/12/19 13:29:52;;;;;;;1999.90;999.90;;;;;;;;;;4971888;28;20430;-69
2022/12/19 13:33:05;;;;;;;1999.90;999.90;;;;;;;;;;4957662;28;20248;-69
2022/12/19 13:35:51;;;;;;;1999.90;999.90;;;;;;;;;;4958767;28;20687;-69
2022/12/19 13:38:44;;;;;;;1999.90;999.90;;;;;;;;;;4956912;28;20340;-70
2022/12/19 13:44:38;;;;;;;1999.90;999.90;;;;;;;;;;4971384;28;20335;-69
2022/12/19 13:47:24;;;;;;;1999.90;999.90;;;;;;;;;;4963138;28;20244;-69
2022/12/19 13:50:15;;;;;;;1999.90;999.90;;;;;;;;;;4957760;28;20224;-69
2022/12/19 13:53:01;;;;;;;1999.90;999.90;;;;;;;;;;4963263;28;20448;-69
2022/12/19 13:55:46;;;;;;;1999.90;999.90;;;;;;;;;;4962596;28;20228;-69
2022/12/19 13:58:32;;;;;;;1999.90;999.90;;;;;;;;;;4958858;28;20695;-69
2022/12/19 14:01:21;;;;;;;1999.90;999.90;;;;;;;;;;4958851;28;20243;-69
2022/12/19 14:04:07;;;;;;;1999.90;999.90;;;;;;;;;;4963386;28;20664;-69
2022/12/19 14:06:55;;;;;;;1999.90;999.90;;;;;;;;;;4958727;28;20583;-69
2022/12/19 14:09:42;;;;;;;1999.90;999.90;;;;;;;;;;4974050;28;20332;-67
2022/12/19 14:15:33;;;;;;;1999.90;999.90;;;;;;;;;;4958972;28;20251;-67
2022/12/19 14:18:21;;;;;;;1999.90;999.90;;;;;;;;;;4972483;28;20702;-68
2022/12/19 14:21:12;;;;;;;1999.90;999.90;;;;;;;;;;4957738;28;20228;-68
2022/12/19 14:24:16;;;;;;;1999.90;999.90;;;;;;;;;;4957835;28;20345;-67
2022/12/19 14:27:02;;;;;;;1999.90;999.90;;;;;;;;;;4961106;28;20215;-68
2022/12/19 14:29:49;;;;;;;1999.90;999.90;;;;;;;;;;4959797;28;20268;-68
2022/12/19 14:32:35;;;;;;;1999.90;999.90;;;;;;;;;;4964484;28;20236;-68
2022/12/19 14:35:23;;;;;;;1999.90;999.90;;;;;;;;;;4968523;28;20462;-67
2022/12/19 14:38:08;;;;;;;1999.90;999.90;;;;;;;;;;4963764;28;20743;-68
2022/12/19 14:40:54;;;;;;;1999.90;999.90;;;;;;;;;;4953679;28;20233;-68
2022/12/19 14:43:38;;;;;;;1999.90;999.90;;;;;;;;;;4954586;28;20257;-68
2022/12/19 14:46:27;;;;;;;1999.90;999.90;;;;;;;;;;4957275;28;20212;-68
2022/12/19 14:49:23;;;;;;;1999.90;999.90;;;;;;;;;;4957070;28;20956;-69
2022/12/19 14:52:23;;;;;;;1999.90;999.90;;;;;;;;;;4957422;28;20255;-69
2022/12/19 14:55:29;;;;;;;1999.90;999.90;;;;;;;;;;4952067;28;20212;-70
2022/12/19 14:58:17;;;;;;;1999.90;999.90;;;;;;;;;;4963210;28;20208;-70
2022/12/19 15:01:03;;;;;;;1999.90;999.90;;;;;;;;;;4967131;28;20288;-68
2022/12/19 15:03:51;;;;;;;1999.90;999.90;;;;;;;;;;4962451;28;20204;-68
2022/12/19 15:06:39;;;;;;;1999.90;999.90;;;;;;;;;;4957871;28;20623;-69
2022/12/19 15:09:25;;;;;;;1999.90;999.90;;;;;;;;;;4954274;28;20232;-70
2022/12/19 15:15:20;;;;;;;1999.90;999.90;;;;;;;;;;4963642;28;20208;-69
2022/12/19 15:18:17;;;;;;;1999.90;999.90;;;;;;;;;;4959126;28;20214;-70
2022/12/19 15:21:03;;;;;;;1999.90;999.90;;;;;;;;;;4961669;28;20241;-69
2022/12/19 15:23:48;;;;;;;1999.90;999.90;;;;;;;;;;4953866;28;20453;-70
2022/12/19 15:26:34;;;;;;;1999.90;999.90;;;;;;;;;;4957663;28;20216;-70
2022/12/19 15:29:19;;;;;;;1999.90;999.90;;;;;;;;;;4966738;28;20355;-71
2022/12/19 15:32:05;;;;;;;1999.90;999.90;;;;;;;;;;4952913;28;20232;-69
2022/12/19 15:34:51;;;;;;;1999.90;999.90;;;;;;;;;;4952949;28;20241;-69
2022/12/19 15:37:36;;;;;;;1999.90;999.90;;;;;;;;;;4954506;28;20216;-70
2022/12/19 15:40:20;;;;;;;1999.90;999.90;;;;;;;;;;4955532;28;20325;-70
2022/12/19 15:43:05;;;;;;;1999.90;999.90;;;;;;;;;;4952231;28;20291;-70
2022/12/19 15:45:52;;;;;;;1999.90;999.90;;;;;;;;;;4957883;28;20211;-70
2022/12/19 15:48:40;;;;;;;1999.90;999.90;;;;;;;;;;4955424;28;20209;-70
2022/12/19 15:51:24;;;;;;;1999.90;999.90;;;;;;;;;;4954913;28;20835;-70
2022/12/19 15:54:09;;;;;;;1999.90;999.90;;;;;;;;;;4957066;28;20207;-70
2022/12/19 15:56:55;;;;;;;1999.90;999.90;;;;;;;;;;4953157;28;20296;-70
2022/12/19 15:59:43;;;;;;;1999.90;999.90;;;;;;;;;;4948580;28;20216;-70
2022/12/19 16:02:28;;;;;;;1999.90;999.90;;;;;;;;;;4961659;28;20315;-70
2022/12/19 16:05:14;;;;;;;1999.90;999.90;;;;;;;;;;4957305;28;20341;-70
2022/12/19 16:08:00;;;;;;;1999.90;999.90;;;;;;;;;;4954253;28;20580;-70
2022/12/19 16:10:47;;;;;;;1999.90;999.90;;;;;;;;;;4955566;28;20236;-69
2022/12/19 16:13:33;;;;;;;1999.90;999.90;;;;;;;;;;4961225;28;20219;-70
2022/12/19 16:16:19;;;;;;;1999.90;999.90;;;;;;;;;;4967414;28;20291;-71
2022/12/19 16:19:10;;;;;;;1999.90;999.90;;;;;;;;;;4958697;28;20784;-69
2022/12/19 16:21:56;;;;;;;1999.90;999.90;;;;;;;;;;4958100;28;20588;-70
2022/12/19 16:24:42;;;;;;;1999.90;999.90;;;;;;;;;;4967339;28;20225;-70
2022/12/19 16:27:28;;;;;;;1999.90;999.90;;;;;;;;;;4971178;28;20275;-70
2022/12/19 16:30:17;;;;;;;1999.90;999.90;;;;;;;;;;4965878;28;20595;-70
2022/12/19 16:33:02;;;;;;;1999.90;999.90;;;;;;;;;;4955000;28;20208;-69
2022/12/19 16:35:48;;;;;;;1999.90;999.90;;;;;;;;;;4952648;28;20417;-69
2022/12/19 16:38:34;;;;;;;1999.90;999.90;;;;;;;;;;4969858;28;20578;-68
2022/12/19 16:41:20;;;;;;;1999.90;999.90;;;;;;;;;;4974347;28;20215;-70
2022/12/19 16:44:12;;;;;;;1999.90;999.90;;;;;;;;;;4973884;28;20343;-70
2022/12/19 16:46:57;;;;;;;1999.90;999.90;;;;;;;;;;4963783;28;20629;-70
2022/12/19 16:49:43;;;;;;;1999.90;999.90;;;;;;;;;;4970659;28;20228;-69
2022/12/19 16:52:28;;;;;;;1999.90;999.90;;;;;;;;;;4954449;28;20239;-69
2022/12/19 16:55:15;;;;;;;1999.90;999.90;;;;;;;;;;4957578;28;20691;-69
2022/12/19 16:58:00;;;;;;;1999.90;999.90;;;;;;;;;;4958430;28;20212;-70
2022/12/19 17:00:45;;;;;;;1999.90;999.90;;;;;;;;;;4950243;28;20450;-67
2022/12/19 17:03:33;;;;;;;1999.90;999.90;;;;;;;;;;4951188;28;20208;-67
2022/12/19 17:06:20;;;;;;;1999.90;999.90;;;;;;;;;;4952327;28;20703;-69
2022/12/19 17:09:05;;;;;;;1999.90;999.90;;;;;;;;;;4955376;28;20276;-68
2022/12/19 17:11:52;;;;;;;1999.90;999.90;;;;;;;;;;4954092;28;20283;-68
2022/12/19 17:14:37;;;;;;;1999.90;999.90;;;;;;;;;;4950823;28;20213;-68
2022/12/19 17:17:22;;;;;;;1999.90;999.90;;;;;;;;;;4953357;28;20224;-69
2022/12/19 17:20:12;;;;;;;1999.90;999.90;;;;;;;;;;4953213;28;20208;-69
2022/12/19 17:22:57;;;;;;;1999.90;999.90;;;;;;;;;;4951079;28;20340;-69
2022/12/19 17:25:42;;;;;;;1999.90;999.90;;;;;;;;;;4950465;28;20695;-70
2022/12/19 17:28:29;;;;;;;1999.90;999.90;;;;;;;;;;4953179;28;20217;-69
2022/12/19 17:31:19;;;;;;;1999.90;999.90;;;;;;;;;;4951069;28;21052;-69
2022/12/19 17:34:04;;;;;;;1999.90;999.90;;;;;;;;;;4951273;28;20205;-70
2022/12/19 17:36:50;;;;;;;1999.90;999.90;;;;;;;;;;4955434;28;20207;-70
2022/12/19 17:39:35;;;;;;;1999.90;999.90;;;;;;;;;;4951816;28;20208;-70
2022/12/19 17:42:21;;;;;;;1999.90;999.90;;;;;;;;;;4951808;28;20341;-70
2022/12/19 17:45:09;;;;;;;1999.90;999.90;;;;;;;;;;4951225;28;20221;-71
2022/12/19 17:47:54;;;;;;;1999.90;999.90;;;;;;;;;;4962150;28;20243;-70
2022/12/19 17:50:40;;;;;;;1999.90;999.90;;;;;;;;;;4957125;28;20224;-70
2022/12/19 17:53:25;;;;;;;1999.90;999.90;;;;;;;;;;4952879;28;20443;-69
2022/12/19 17:56:12;;;;;;;1999.90;999.90;;;;;;;;;;4955624;28;20348;-71
2022/12/19 17:58:57;;;;;;;1999.90;999.90;;;;;;;;;;4953963;28;20677;-70
2022/12/19 18:01:45;;;;;;;1999.90;999.90;;;;;;;;;;4957171;28;20806;-69
2022/12/19 18:04:30;;;;;;;1999.90;999.90;;;;;;;;;;4962044;28;20344;-69
2022/12/19 18:07:16;;;;;;;1999.90;999.90;;;;;;;;;;4951493;28;20232;-71
2022/12/19 18:10:01;;;;;;;1999.90;999.90;;;;;;;;;;4952867;28;20240;-70
2022/12/19 18:12:46;;;;;;;1999.90;999.90;;;;;;;;;;4950720;28;20365;-71
2022/12/19 18:15:31;;;;;;;1999.90;999.90;;;;;;;;;;4955441;28;20221;-70
2022/12/19 18:18:20;;;;;;;1999.90;999.90;;;;;;;;;;4961177;28;20205;-70
2022/12/19 18:21:05;;;;;;;1999.90;999.90;;;;;;;;;;4962793;28;20236;-69
2022/12/19 18:23:51;;;;;;;1999.90;999.90;;;;;;;;;;4957635;28;20204;-70
2022/12/19 18:26:35;;;;;;;1999.90;999.90;;;;;;;;;;4969348;28;20212;-70
2022/12/19 18:29:20;;;;;;;1999.90;999.90;;;;;;;;;;4966519;28;20225;-70
2022/12/19 18:32:06;;;;;;;1999.90;999.90;;;;;;;;;;4966192;28;20228;-69
2022/12/19 18:34:53;;;;;;;1999.90;999.90;;;;;;;;;;4959296;28;20376;-70
2022/12/19 18:37:38;;;;;;;1999.90;999.90;;;;;;;;;;4965535;28;20208;-70
2022/12/19 18:40:23;;;;;;;1999.90;999.90;;;;;;;;;;4969612;28;20208;-69
2022/12/19 18:43:09;;;;;;;1999.90;999.90;;;;;;;;;;4953035;28;20204;-69
2022/12/19 18:45:54;;;;;;;1999.90;999.90;;;;;;;;;;4967692;28;20335;-69
2022/12/19 18:48:39;;;;;;;1999.90;999.90;;;;;;;;;;4963574;28;20212;-69
2022/12/19 18:51:26;;;;;;;1999.90;999.90;;;;;;;;;;4959348;28;20300;-69
2022/12/19 18:54:15;;;;;;;1999.90;999.90;;;;;;;;;;4956590;28;20419;-69
2022/12/19 18:57:00;;;;;;;1999.90;999.90;;;;;;;;;;4960455;28;20696;-69
2022/12/19 18:59:47;;;;;;;1999.90;999.90;;;;;;;;;;4964063;28;20324;-69
2022/12/19 19:02:32;;;;;;;1999.90;999.90;;;;;;;;;;4955046;28;20295;-70
2022/12/19 19:05:18;;;;;;;1999.90;999.90;;;;;;;;;;4961211;28;20232;-69
2022/12/19 19:08:12;;;;;;;1999.90;999.90;;;;;;;;;;4960941;28;20575;-70
2022/12/19 19:10:58;;;;;;;1999.90;999.90;;;;;;;;;;4952701;28;20224;-70
2022/12/19 19:13:43;;;;;;;1999.90;999.90;;;;;;;;;;4965946;28;20205;-70
2022/12/19 19:16:28;;;;;;;1999.90;999.90;;;;;;;;;;4953810;28;20458;-69
2022/12/19 19:19:17;;;;;;;1999.90;999.90;;;;;;;;;;4956862;28;20209;-70
2022/12/19 19:22:02;;;;;;;1999.90;999.90;;;;;;;;;;4971679;28;20224;-70
2022/12/19 19:24:48;;;;;;;1999.90;999.90;;;;;;;;;;4954489;28;20359;-69
2022/12/19 19:27:33;;;;;;;1999.90;999.90;;;;;;;;;;4956198;28;20905;-70
2022/12/19 19:30:18;;;;;;;1999.90;999.90;;;;;;;;;;4967002;28;20262;-70
2022/12/19 19:33:06;;;;;;;1999.90;999.90;;;;;;;;;;4966831;28;20964;-70
2022/12/19 19:35:52;;;;;;;1999.90;999.90;;;;;;;;;;4952045;28;20268;-70
2022/12/19 19:38:38;;;;;;;1999.90;999.90;;;;;;;;;;4966132;28;20239;-69
2022/12/19 19:41:28;;;;;;;1999.90;999.90;;;;;;;;;;4969166;28;20300;-70
2022/12/19 19:44:13;;;;;;;1999.90;999.90;;;;;;;;;;4957257;28;20197;-71
2022/12/19 19:47:01;;;;;;;1999.90;999.90;;;;;;;;;;4956717;28;20204;-70
2022/12/19 19:49:46;;;;;;;1999.90;999.90;;;;;;;;;;4954209;28;20216;-71
2022/12/19 19:52:31;;;;;;;1999.90;999.90;;;;;;;;;;4965609;28;20325;-70
2022/12/19 19:55:16;;;;;;;1999.90;999.90;;;;;;;;;;4959420;28;20224;-70
2022/12/19 19:58:03;;;;;;;1999.90;999.90;;;;;;;;;;4971876;28;20604;-70
2022/12/19 20:00:49;;;;;;;1999.90;999.90;;;;;;;;;;4964881;28;20315;-70
2022/12/19 20:03:33;;;;;;;1999.90;999.90;;;;;;;;;;4957154;28;20208;-71
2022/12/19 20:06:19;;;;;;;1999.90;999.90;;;;;;;;;;4960700;28;20325;-70
2022/12/19 20:09:04;;;;;;;1999.90;999.90;;;;;;;;;;4954139;28;20691;-71
2022/12/19 20:11:49;;;;;;;1999.90;999.90;;;;;;;;;;4964833;28;20232;-69
2022/12/19 20:14:35;;;;;;;1999.90;999.90;;;;;;;;;;4953448;28;20548;-71
2022/12/19 20:17:20;;;;;;;1999.90;999.90;;;;;;;;;;4968446;28;20212;-70
2022/12/19 20:20:06;;;;;;;1999.90;999.90;;;;;;;;;;4963525;28;20903;-70
2022/12/19 20:22:51;;;;;;;1999.90;999.90;;;;;;;;;;4958488;28;20215;-70
2022/12/19 20:25:38;;;;;;;1999.90;999.90;;;;;;;;;;4968720;28;20219;-70
2022/12/19 20:28:23;;;;;;;1999.90;999.90;;;;;;;;;;4961149;28;20303;-70
2022/12/19 20:31:09;;;;;;;1999.90;999.90;;;;;;;;;;4953481;28;20232;-70
2022/12/19 20:33:55;;;;;;;1999.90;999.90;;;;;;;;;;4953049;28;20216;-70
2022/12/19 20:36:40;;;;;;;1999.90;999.90;;;;;;;;;;4962379;28;20565;-69
2022/12/19 20:39:25;;;;;;;1999.90;999.90;;;;;;;;;;4953139;28;20221;-70
2022/12/19 20:42:10;;;;;;;1999.90;999.90;;;;;;;;;;4953362;28;20231;-70
2022/12/19 20:44:55;;;;;;;1999.90;999.90;;;;;;;;;;4964257;28;20249;-71
2022/12/19 20:47:42;;;;;;;1999.90;999.90;;;;;;;;;;4961097;28;20672;-70
2022/12/19 20:50:26;;;;;;;1999.90;999.90;;;;;;;;;;4936244;28;20255;-70